sensor_id;sensor_type;location;lat;lon;timestamp;temperature;humidity
7566;DHT22;3824;48.010;7.832;2022-09-29T00:01:04;9.00;99.90
7566;DHT22;3824;48.010;7.832;2022-09-29T00:03:31;9.00;99.90
7566;DHT22;3824;48.010;7.832;2022-09-29T00:05:58;8.90;99.90
7566;DHT22;3824;48.010;7.832;2022-09-29T00:08:26;8.90;99.90
7566;DHT22;3824;48.010;7.832;2022-09-29T00:10:53;8.90;99.90
7566;DHT22;3824;48.010;7.832;2022-09-29T00:13:21;8.90;99.90
7566;DHT22;3824;48.010;7.832;2022-09-29T00:15:55;9.00;99.90
7566;DHT22;3824;48.010;7.832;2022-09-29T00:18:24;9.00;99.90
7566;DHT22;3824;48.010;7.832;2022-09-29T00:21:02;9.00;99.90
7566;DHT22;3824;48.010;7.832;2022-09-29T00:23:30;9.00;99.90
7566;DHT22;3824;48.010;7.832;2022-09-29T00:26:05;9.00;99.90
7566;DHT22;3824;48.010;7.832;2022-09-29T00:28:33;9.00;99.90
7566;DHT22;3824;48.010;7.832;2022-09-29T00:31:01;9.00;99.90
7566;DHT22;3824;48.010;7.832;2022-09-29T00:33:31;9.00;99.90
7566;DHT22;3824;48.010;7.832;2022-09-29T00:36:00;9.00;99.90
7566;DHT22;3824;48.010;7.832;2022-09-29T00:38:29;9.00;99.90
7566;DHT22;3824;48.010;7.832;2022-09-29T00:40:56;9.00;99.90
7566;DHT22;3824;48.010;7.832;2022-09-29T00:43:24;9.00;99.90
7566;DHT22;3824;48.010;7.832;2022-09-29T00:45:53;9.00;99.90
7566;DHT22;3824;48.010;7.832;2022-09-29T00:48:30;9.10;99.90
7566;DHT22;3824;48.010;7.832;2022-09-29T00:50:59;9.10;99.90
7566;DHT22;3824;48.010;7.832;2022-09-29T00:53:26;9.10;99.90
7566;DHT22;3824;48.010;7.832;2022-09-29T00:55:57;9.10;99.90
7566;DHT22;3824;48.010;7.832;2022-09-29T00:58:29;9.10;99.90
7566;DHT22;3824;48.010;7.832;2022-09-29T01:00:58;9.10;99.90
7566;DHT22;3824;48.010;7.832;2022-09-29T01:03:28;9.00;99.90
7566;DHT22;3824;48.010;7.832;2022-09-29T01:06:00;9.00;99.90
7566;DHT22;3824;48.010;7.832;2022-09-29T01:08:32;9.00;99.90
7566;DHT22;3824;48.010;7.832;2022-09-29T01:11:01;9.00;99.90
7566;DHT22;3824;48.010;7.832;2022-09-29T01:13:28;9.00;99.90
7566;DHT22;3824;48.010;7.832;2022-09-29T01:15:55;9.10;99.90
7566;DHT22;3824;48.010;7.832;2022-09-29T01:18:22;9.10;99.90
7566;DHT22;3824;48.010;7.832;2022-09-29T01:20:54;9.10;99.90
7566;DHT22;3824;48.010;7.832;2022-09-29T01:26:54;9.10;99.90
7566;DHT22;3824;48.010;7.832;2022-09-29T01:32:42;9.00;99.90
7566;DHT22;3824;48.010;7.832;2022-09-29T01:35:15;9.00;99.90
7566;DHT22;3824;48.010;7.832;2022-09-29T01:37:56;10.00;99.90
7566;DHT22;3824;48.010;7.832;2022-09-29T01:40:34;9.10;99.90
7566;DHT22;3824;48.010;7.832;2022-09-29T01:43:08;9.10;99.90
7566;DHT22;3824;48.010;7.832;2022-09-29T01:45:39;9.00;99.90
7566;DHT22;3824;48.010;7.832;2022-09-29T01:48:10;9.00;99.90
7566;DHT22;3824;48.010;7.832;2022-09-29T01:50:44;9.00;99.90
7566;DHT22;3824;48.010;7.832;2022-09-29T01:53:14;9.00;99.90
7566;DHT22;3824;48.010;7.832;2022-09-29T01:55:46;9.00;99.90
7566;DHT22;3824;48.010;7.832;2022-09-29T01:58:17;9.00;99.90
7566;DHT22;3824;48.010;7.832;2022-09-29T02:00:49;9.00;99.90
7566;DHT22;3824;48.010;7.832;2022-09-29T02:03:21;9.00;99.90
7566;DHT22;3824;48.010;7.832;2022-09-29T02:05:53;8.90;99.90
7566;DHT22;3824;48.010;7.832;2022-09-29T02:08:25;8.90;99.90
7566;DHT22;3824;48.010;7.832;2022-09-29T02:11:00;8.90;99.90
7566;DHT22;3824;48.010;7.832;2022-09-29T02:13:30;8.90;99.90
7566;DHT22;3824;48.010;7.832;2022-09-29T02:15:58;8.90;99.90
7566;DHT22;3824;48.010;7.832;2022-09-29T02:18:30;8.80;99.90
7566;DHT22;3824;48.010;7.832;2022-09-29T02:21:00;8.80;99.90
7566;DHT22;3824;48.010;7.832;2022-09-29T02:23:27;8.80;99.90
7566;DHT22;3824;48.010;7.832;2022-09-29T02:25:56;8.80;99.90
7566;DHT22;3824;48.010;7.832;2022-09-29T02:28:24;8.80;99.90
7566;DHT22;3824;48.010;7.832;2022-09-29T02:30:51;8.80;99.90
7566;DHT22;3824;48.010;7.832;2022-09-29T02:33:19;8.80;99.90
7566;DHT22;3824;48.010;7.832;2022-09-29T02:35:58;8.70;99.90
7566;DHT22;3824;48.010;7.832;2022-09-29T02:38:41;8.80;99.90
7566;DHT22;3824;48.010;7.832;2022-09-29T02:41:18;8.90;99.90
7566;DHT22;3824;48.010;7.832;2022-09-29T02:44:00;8.70;99.90
7566;DHT22;3824;48.010;7.832;2022-09-29T02:46:41;9.30;99.90
7566;DHT22;3824;48.010;7.832;2022-09-29T02:49:27;8.60;99.90
7566;DHT22;3824;48.010;7.832;2022-09-29T02:52:00;8.50;99.90
7566;DHT22;3824;48.010;7.832;2022-09-29T02:54:45;8.50;99.90
7566;DHT22;3824;48.010;7.832;2022-09-29T02:57:18;8.60;99.90
7566;DHT22;3824;48.010;7.832;2022-09-29T02:59:53;8.50;99.90
7566;DHT22;3824;48.010;7.832;2022-09-29T03:02:25;8.60;99.90
7566;DHT22;3824;48.010;7.832;2022-09-29T03:04:52;8.50;99.90
7566;DHT22;3824;48.010;7.832;2022-09-29T03:07:21;8.50;99.90
7566;DHT22;3824;48.010;7.832;2022-09-29T03:09:48;8.50;99.90
7566;DHT22;3824;48.010;7.832;2022-09-29T03:12:15;8.50;99.90
7566;DHT22;3824;48.010;7.832;2022-09-29T03:14:42;8.50;99.90
7566;DHT22;3824;48.010;7.832;2022-09-29T03:17:09;9.20;99.90
7566;DHT22;3824;48.010;7.832;2022-09-29T03:19:36;8.50;99.90
7566;DHT22;3824;48.010;7.832;2022-09-29T03:22:03;8.60;99.90
7566;DHT22;3824;48.010;7.832;2022-09-29T03:24:31;8.60;99.90
7566;DHT22;3824;48.010;7.832;2022-09-29T03:26:58;8.60;99.90
7566;DHT22;3824;48.010;7.832;2022-09-29T03:29:25;9.30;99.90
7566;DHT22;3824;48.010;7.832;2022-09-29T03:31:52;8.60;99.90
7566;DHT22;3824;48.010;7.832;2022-09-29T03:34:19;8.60;99.90
7566;DHT22;3824;48.010;7.832;2022-09-29T03:36:45;8.60;99.90
7566;DHT22;3824;48.010;7.832;2022-09-29T03:39:12;8.60;99.90
7566;DHT22;3824;48.010;7.832;2022-09-29T03:41:40;8.60;99.90
7566;DHT22;3824;48.010;7.832;2022-09-29T03:44:07;8.60;99.90
7566;DHT22;3824;48.010;7.832;2022-09-29T03:46:34;8.60;99.90
7566;DHT22;3824;48.010;7.832;2022-09-29T03:49:01;8.50;99.90
7566;DHT22;3824;48.010;7.832;2022-09-29T03:51:27;8.60;99.90
7566;DHT22;3824;48.010;7.832;2022-09-29T03:53:54;8.50;99.90
7566;DHT22;3824;48.010;7.832;2022-09-29T03:56:21;8.50;99.90
7566;DHT22;3824;48.010;7.832;2022-09-29T03:58:49;8.40;99.90
7566;DHT22;3824;48.010;7.832;2022-09-29T04:01:16;8.40;99.90
7566;DHT22;3824;48.010;7.832;2022-09-29T04:03:43;8.40;99.90
7566;DHT22;3824;48.010;7.832;2022-09-29T04:06:10;8.30;99.90
7566;DHT22;3824;48.010;7.832;2022-09-29T04:08:37;8.30;99.90
7566;DHT22;3824;48.010;7.832;2022-09-29T04:11:04;8.30;99.90
7566;DHT22;3824;48.010;7.832;2022-09-29T04:13:32;8.30;99.90
7566;DHT22;3824;48.010;7.832;2022-09-29T04:16:03;8.30;99.90
7566;DHT22;3824;48.010;7.832;2022-09-29T04:18:31;8.40;99.90
7566;DHT22;3824;48.010;7.832;2022-09-29T04:20:58;8.50;99.90
7566;DHT22;3824;48.010;7.832;2022-09-29T04:23:25;8.60;99.90
7566;DHT22;3824;48.010;7.832;2022-09-29T04:25:54;8.60;99.90
7566;DHT22;3824;48.010;7.832;2022-09-29T04:28:21;9.20;99.90
7566;DHT22;3824;48.010;7.832;2022-09-29T04:30:48;8.70;99.90
7566;DHT22;3824;48.010;7.832;2022-09-29T04:33:16;8.70;99.90
7566;DHT22;3824;48.010;7.832;2022-09-29T04:35:43;8.70;99.90
7566;DHT22;3824;48.010;7.832;2022-09-29T04:38:11;8.70;99.90
7566;DHT22;3824;48.010;7.832;2022-09-29T04:40:38;8.70;99.90
7566;DHT22;3824;48.010;7.832;2022-09-29T04:43:04;8.70;99.90
7566;DHT22;3824;48.010;7.832;2022-09-29T04:45:31;8.70;99.90
7566;DHT22;3824;48.010;7.832;2022-09-29T04:47:58;8.70;99.90
7566;DHT22;3824;48.010;7.832;2022-09-29T04:50:26;8.70;99.90
7566;DHT22;3824;48.010;7.832;2022-09-29T04:52:53;8.70;99.90
7566;DHT22;3824;48.010;7.832;2022-09-29T04:55:20;8.70;99.90
7566;DHT22;3824;48.010;7.832;2022-09-29T04:57:48;8.70;99.90
7566;DHT22;3824;48.010;7.832;2022-09-29T05:00:15;8.70;99.90
7566;DHT22;3824;48.010;7.832;2022-09-29T05:02:42;8.70;99.90
7566;DHT22;3824;48.010;7.832;2022-09-29T05:05:09;8.70;99.90
7566;DHT22;3824;48.010;7.832;2022-09-29T05:07:38;8.70;99.90
7566;DHT22;3824;48.010;7.832;2022-09-29T05:10:07;8.70;99.90
7566;DHT22;3824;48.010;7.832;2022-09-29T05:12:34;8.70;99.90
7566;DHT22;3824;48.010;7.832;2022-09-29T05:15:01;8.70;99.90
7566;DHT22;3824;48.010;7.832;2022-09-29T05:17:29;8.70;99.90
7566;DHT22;3824;48.010;7.832;2022-09-29T05:19:56;8.70;99.90
7566;DHT22;3824;48.010;7.832;2022-09-29T05:22:22;8.80;99.90
7566;DHT22;3824;48.010;7.832;2022-09-29T05:24:52;8.80;99.90
7566;DHT22;3824;48.010;7.832;2022-09-29T05:27:19;8.80;99.90
7566;DHT22;3824;48.010;7.832;2022-09-29T05:29:46;8.80;99.90
7566;DHT22;3824;48.010;7.832;2022-09-29T05:32:13;8.80;99.90
7566;DHT22;3824;48.010;7.832;2022-09-29T05:34:40;8.80;99.90
7566;DHT22;3824;48.010;7.832;2022-09-29T05:37:07;8.80;99.90
7566;DHT22;3824;48.010;7.832;2022-09-29T05:39:34;8.80;99.90
7566;DHT22;3824;48.010;7.832;2022-09-29T05:42:03;8.90;99.90
7566;DHT22;3824;48.010;7.832;2022-09-29T05:44:30;8.80;99.90
7566;DHT22;3824;48.010;7.832;2022-09-29T05:46:58;8.90;99.90
7566;DHT22;3824;48.010;7.832;2022-09-29T05:49:25;8.80;99.90
7566;DHT22;3824;48.010;7.832;2022-09-29T05:51:51;8.90;99.90
7566;DHT22;3824;48.010;7.832;2022-09-29T05:54:18;8.90;99.90
7566;DHT22;3824;48.010;7.832;2022-09-29T05:56:45;8.90;99.90
7566;DHT22;3824;48.010;7.832;2022-09-29T05:59:13;8.90;99.90
7566;DHT22;3824;48.010;7.832;2022-09-29T06:01:40;8.90;99.90
7566;DHT22;3824;48.010;7.832;2022-09-29T06:04:07;8.90;99.90
7566;DHT22;3824;48.010;7.832;2022-09-29T06:06:34;8.80;99.90
7566;DHT22;3824;48.010;7.832;2022-09-29T06:09:05;8.80;99.90
7566;DHT22;3824;48.010;7.832;2022-09-29T06:11:32;8.80;99.90
7566;DHT22;3824;48.010;7.832;2022-09-29T06:14:00;8.80;99.90
7566;DHT22;3824;48.010;7.832;2022-09-29T06:16:30;8.80;99.90
7566;DHT22;3824;48.010;7.832;2022-09-29T06:18:59;8.80;99.90
7566;DHT22;3824;48.010;7.832;2022-09-29T06:21:28;8.80;99.90
7566;DHT22;3824;48.010;7.832;2022-09-29T06:23:56;8.90;99.90
7566;DHT22;3824;48.010;7.832;2022-09-29T06:26:25;8.90;99.90
7566;DHT22;3824;48.010;7.832;2022-09-29T06:28:52;8.80;99.90
7566;DHT22;3824;48.010;7.832;2022-09-29T06:31:21;8.80;99.90
7566;DHT22;3824;48.010;7.832;2022-09-29T06:33:49;8.80;99.90
7566;DHT22;3824;48.010;7.832;2022-09-29T06:36:17;8.80;99.90
7566;DHT22;3824;48.010;7.832;2022-09-29T06:39:02;8.80;99.90
7566;DHT22;3824;48.010;7.832;2022-09-29T06:41:29;8.90;99.90
7566;DHT22;3824;48.010;7.832;2022-09-29T06:43:56;8.90;99.90
7566;DHT22;3824;48.010;7.832;2022-09-29T06:46:23;8.90;99.90
7566;DHT22;3824;48.010;7.832;2022-09-29T06:48:53;8.90;99.90
7566;DHT22;3824;48.010;7.832;2022-09-29T06:51:20;9.00;99.90
7566;DHT22;3824;48.010;7.832;2022-09-29T06:53:48;9.00;99.90
7566;DHT22;3824;48.010;7.832;2022-09-29T06:56:15;9.10;99.90
7566;DHT22;3824;48.010;7.832;2022-09-29T06:58:42;9.20;99.90
7566;DHT22;3824;48.010;7.832;2022-09-29T07:01:09;9.20;99.90
7566;DHT22;3824;48.010;7.832;2022-09-29T07:03:36;9.30;99.90
7566;DHT22;3824;48.010;7.832;2022-09-29T07:06:05;9.40;99.90
7566;DHT22;3824;48.010;7.832;2022-09-29T07:08:33;9.40;99.90
7566;DHT22;3824;48.010;7.832;2022-09-29T07:11:01;9.40;99.90
7566;DHT22;3824;48.010;7.832;2022-09-29T07:13:28;9.40;99.90
7566;DHT22;3824;48.010;7.832;2022-09-29T07:15:55;9.50;99.90
7566;DHT22;3824;48.010;7.832;2022-09-29T07:18:22;9.60;99.90
7566;DHT22;3824;48.010;7.832;2022-09-29T07:20:49;9.70;99.90
7566;DHT22;3824;48.010;7.832;2022-09-29T07:23:17;9.60;99.90
7566;DHT22;3824;48.010;7.832;2022-09-29T07:25:44;9.70;99.90
7566;DHT22;3824;48.010;7.832;2022-09-29T07:28:11;9.70;99.90
7566;DHT22;3824;48.010;7.832;2022-09-29T07:30:38;9.70;99.90
7566;DHT22;3824;48.010;7.832;2022-09-29T07:33:05;9.70;99.90
7566;DHT22;3824;48.010;7.832;2022-09-29T07:35:32;9.70;99.90
7566;DHT22;3824;48.010;7.832;2022-09-29T07:37:59;9.80;99.90
7566;DHT22;3824;48.010;7.832;2022-09-29T07:40:27;10.00;99.90
7566;DHT22;3824;48.010;7.832;2022-09-29T07:42:54;10.10;99.90
7566;DHT22;3824;48.010;7.832;2022-09-29T07:45:20;10.10;99.90
7566;DHT22;3824;48.010;7.832;2022-09-29T07:47:47;10.20;99.90
7566;DHT22;3824;48.010;7.832;2022-09-29T07:50:14;10.20;99.90
7566;DHT22;3824;48.010;7.832;2022-09-29T07:52:41;10.30;99.90
7566;DHT22;3824;48.010;7.832;2022-09-29T07:55:08;10.30;99.90
7566;DHT22;3824;48.010;7.832;2022-09-29T07:57:36;10.10;99.90
7566;DHT22;3824;48.010;7.832;2022-09-29T08:00:04;10.20;99.90
7566;DHT22;3824;48.010;7.832;2022-09-29T08:02:31;10.20;99.90
7566;DHT22;3824;48.010;7.832;2022-09-29T08:04:58;10.20;99.90
7566;DHT22;3824;48.010;7.832;2022-09-29T08:07:25;10.30;99.90
7566;DHT22;3824;48.010;7.832;2022-09-29T08:09:51;10.30;99.90
7566;DHT22;3824;48.010;7.832;2022-09-29T08:12:18;10.30;99.90
7566;DHT22;3824;48.010;7.832;2022-09-29T08:14:46;10.30;99.90
7566;DHT22;3824;48.010;7.832;2022-09-29T08:17:13;10.20;99.90
7566;DHT22;3824;48.010;7.832;2022-09-29T08:19:40;8.90;99.90
7566;DHT22;3824;48.010;7.832;2022-09-29T08:22:07;10.20;99.90
7566;DHT22;3824;48.010;7.832;2022-09-29T08:24:34;10.30;99.90
7566;DHT22;3824;48.010;7.832;2022-09-29T08:27:01;10.20;99.90
7566;DHT22;3824;48.010;7.832;2022-09-29T08:29:29;10.30;99.90
7566;DHT22;3824;48.010;7.832;2022-09-29T08:31:58;10.30;99.90
7566;DHT22;3824;48.010;7.832;2022-09-29T08:34:25;10.40;99.90
7566;DHT22;3824;48.010;7.832;2022-09-29T08:36:52;10.60;99.90
7566;DHT22;3824;48.010;7.832;2022-09-29T08:39:20;10.70;99.90
7566;DHT22;3824;48.010;7.832;2022-09-29T08:41:52;10.70;99.90
7566;DHT22;3824;48.010;7.832;2022-09-29T08:44:41;10.80;99.90
7566;DHT22;3824;48.010;7.832;2022-09-29T08:47:20;10.90;99.90
7566;DHT22;3824;48.010;7.832;2022-09-29T08:49:53;10.90;99.90
7566;DHT22;3824;48.010;7.832;2022-09-29T08:52:23;10.90;99.90
7566;DHT22;3824;48.010;7.832;2022-09-29T08:54:54;10.90;99.90
7566;DHT22;3824;48.010;7.832;2022-09-29T08:57:22;10.90;99.90
7566;DHT22;3824;48.010;7.832;2022-09-29T08:59:53;11.00;99.90
7566;DHT22;3824;48.010;7.832;2022-09-29T09:05:26;11.10;99.90
7566;DHT22;3824;48.010;7.832;2022-09-29T09:08:00;11.10;99.90
7566;DHT22;3824;48.010;7.832;2022-09-29T09:10:37;11.10;99.90
7566;DHT22;3824;48.010;7.832;2022-09-29T09:13:16;11.00;99.90
7566;DHT22;3824;48.010;7.832;2022-09-29T09:15:53;10.90;99.90
7566;DHT22;3824;48.010;7.832;2022-09-29T09:18:33;11.00;99.90
7566;DHT22;3824;48.010;7.832;2022-09-29T09:21:07;11.00;99.90
7566;DHT22;3824;48.010;7.832;2022-09-29T09:23:43;11.00;99.90
7566;DHT22;3824;48.010;7.832;2022-09-29T09:26:13;11.10;99.90
7566;DHT22;3824;48.010;7.832;2022-09-29T09:28:44;11.10;99.90
7566;DHT22;3824;48.010;7.832;2022-09-29T09:31:16;11.10;99.90
7566;DHT22;3824;48.010;7.832;2022-09-29T09:33:51;11.10;99.90
7566;DHT22;3824;48.010;7.832;2022-09-29T09:36:22;11.20;99.90
7566;DHT22;3824;48.010;7.832;2022-09-29T09:38:59;11.10;99.90
7566;DHT22;3824;48.010;7.832;2022-09-29T09:41:29;11.30;99.90
7566;DHT22;3824;48.010;7.832;2022-09-29T09:44:00;11.40;99.90
7566;DHT22;3824;48.010;7.832;2022-09-29T09:46:31;11.40;99.90
7566;DHT22;3824;48.010;7.832;2022-09-29T09:49:09;11.50;99.90
7566;DHT22;3824;48.010;7.832;2022-09-29T09:51:45;11.60;99.90
7566;DHT22;3824;48.010;7.832;2022-09-29T09:54:22;11.70;99.90
7566;DHT22;3824;48.010;7.832;2022-09-29T09:57:02;11.80;99.90
7566;DHT22;3824;48.010;7.832;2022-09-29T09:59:41;11.80;99.90
7566;DHT22;3824;48.010;7.832;2022-09-29T10:02:15;11.80;99.90
7566;DHT22;3824;48.010;7.832;2022-09-29T10:04:47;11.80;99.90
7566;DHT22;3824;48.010;7.832;2022-09-29T10:07:14;11.80;99.90
7566;DHT22;3824;48.010;7.832;2022-09-29T10:09:42;11.80;99.90
7566;DHT22;3824;48.010;7.832;2022-09-29T10:12:14;11.80;99.90
7566;DHT22;3824;48.010;7.832;2022-09-29T10:14:46;11.80;99.90
7566;DHT22;3824;48.010;7.832;2022-09-29T10:17:16;11.90;99.90
7566;DHT22;3824;48.010;7.832;2022-09-29T10:19:57;12.00;99.90
7566;DHT22;3824;48.010;7.832;2022-09-29T10:22:26;12.10;99.90
7566;DHT22;3824;48.010;7.832;2022-09-29T10:24:55;12.20;99.90
7566;DHT22;3824;48.010;7.832;2022-09-29T10:27:31;12.20;99.90
7566;DHT22;3824;48.010;7.832;2022-09-29T10:29:58;12.30;99.90
7566;DHT22;3824;48.010;7.832;2022-09-29T10:32:28;12.30;99.90
7566;DHT22;3824;48.010;7.832;2022-09-29T10:35:07;12.30;99.90
7566;DHT22;3824;48.010;7.832;2022-09-29T10:37:37;12.30;99.90
7566;DHT22;3824;48.010;7.832;2022-09-29T10:40:14;12.30;99.90
7566;DHT22;3824;48.010;7.832;2022-09-29T10:42:43;12.20;99.90
7566;DHT22;3824;48.010;7.832;2022-09-29T10:45:15;12.20;99.90
7566;DHT22;3824;48.010;7.832;2022-09-29T10:47:46;12.20;99.90
7566;DHT22;3824;48.010;7.832;2022-09-29T10:50:17;12.10;99.90
7566;DHT22;3824;48.010;7.832;2022-09-29T10:52:48;12.20;99.90
7566;DHT22;3824;48.010;7.832;2022-09-29T10:55:18;12.20;99.90
7566;DHT22;3824;48.010;7.832;2022-09-29T10:57:46;12.30;99.90
7566;DHT22;3824;48.010;7.832;2022-09-29T11:00:27;12.20;99.90
7566;DHT22;3824;48.010;7.832;2022-09-29T11:03:01;12.20;99.90
7566;DHT22;3824;48.010;7.832;2022-09-29T11:05:31;12.20;99.90
7566;DHT22;3824;48.010;7.832;2022-09-29T11:07:59;12.10;99.90
7566;DHT22;3824;48.010;7.832;2022-09-29T11:10:28;12.20;99.90
7566;DHT22;3824;48.010;7.832;2022-09-29T11:12:56;12.20;99.90
7566;DHT22;3824;48.010;7.832;2022-09-29T11:15:25;12.20;99.90
7566;DHT22;3824;48.010;7.832;2022-09-29T11:17:54;12.20;99.90
7566;DHT22;3824;48.010;7.832;2022-09-29T11:20:24;12.20;99.90
7566;DHT22;3824;48.010;7.832;2022-09-29T11:23:24;12.20;99.90
7566;DHT22;3824;48.010;7.832;2022-09-29T11:26:22;12.30;99.90
7566;DHT22;3824;48.010;7.832;2022-09-29T11:29:07;12.30;99.90
7566;DHT22;3824;48.010;7.832;2022-09-29T11:31:41;12.30;99.90
7566;DHT22;3824;48.010;7.832;2022-09-29T11:34:34;12.30;99.90
7566;DHT22;3824;48.010;7.832;2022-09-29T11:37:10;12.20;99.90
7566;DHT22;3824;48.010;7.832;2022-09-29T11:39:44;12.10;99.90
7566;DHT22;3824;48.010;7.832;2022-09-29T11:42:38;12.10;99.90
7566;DHT22;3824;48.010;7.832;2022-09-29T11:45:10;12.10;99.90
7566;DHT22;3824;48.010;7.832;2022-09-29T11:48:11;12.20;99.90
7566;DHT22;3824;48.010;7.832;2022-09-29T11:50:50;12.20;99.90
7566;DHT22;3824;48.010;7.832;2022-09-29T11:53:30;12.40;99.90
7566;DHT22;3824;48.010;7.832;2022-09-29T11:56:09;12.40;99.90
7566;DHT22;3824;48.010;7.832;2022-09-29T11:58:50;12.50;99.90
7566;DHT22;3824;48.010;7.832;2022-09-29T12:01:30;12.60;99.90
7566;DHT22;3824;48.010;7.832;2022-09-29T12:04:13;12.60;99.90
7566;DHT22;3824;48.010;7.832;2022-09-29T12:06:52;12.70;99.90
7566;DHT22;3824;48.010;7.832;2022-09-29T12:09:33;12.80;99.90
7566;DHT22;3824;48.010;7.832;2022-09-29T12:12:08;12.90;99.90
7566;DHT22;3824;48.010;7.832;2022-09-29T12:14:46;13.00;99.90
7566;DHT22;3824;48.010;7.832;2022-09-29T12:17:19;12.90;99.90
7566;DHT22;3824;48.010;7.832;2022-09-29T12:19:54;13.00;99.90
7566;DHT22;3824;48.010;7.832;2022-09-29T12:22:21;13.00;99.90
7566;DHT22;3824;48.010;7.832;2022-09-29T12:24:51;13.10;99.90
7566;DHT22;3824;48.010;7.832;2022-09-29T12:27:23;13.10;99.90
7566;DHT22;3824;48.010;7.832;2022-09-29T12:29:54;13.30;99.90
7566;DHT22;3824;48.010;7.832;2022-09-29T12:32:26;13.30;99.90
7566;DHT22;3824;48.010;7.832;2022-09-29T12:34:58;13.30;99.90
7566;DHT22;3824;48.010;7.832;2022-09-29T12:37:31;13.30;99.90
7566;DHT22;3824;48.010;7.832;2022-09-29T12:40:04;13.30;99.90
7566;DHT22;3824;48.010;7.832;2022-09-29T12:42:53;13.40;99.90
7566;DHT22;3824;48.010;7.832;2022-09-29T12:45:25;13.60;99.90
7566;DHT22;3824;48.010;7.832;2022-09-29T12:48:03;13.80;99.90
7566;DHT22;3824;48.010;7.832;2022-09-29T12:50:35;14.00;99.90
7566;DHT22;3824;48.010;7.832;2022-09-29T12:53:08;14.10;99.90
7566;DHT22;3824;48.010;7.832;2022-09-29T12:55:45;14.10;99.90
7566;DHT22;3824;48.010;7.832;2022-09-29T12:58:19;14.10;99.90
7566;DHT22;3824;48.010;7.832;2022-09-29T13:00:52;14.20;99.90
7566;DHT22;3824;48.010;7.832;2022-09-29T13:03:41;14.20;99.90
7566;DHT22;3824;48.010;7.832;2022-09-29T13:06:27;14.30;99.90
7566;DHT22;3824;48.010;7.832;2022-09-29T13:12:33;14.50;99.90
7566;DHT22;3824;48.010;7.832;2022-09-29T13:15:24;14.60;99.90
7566;DHT22;3824;48.010;7.832;2022-09-29T13:18:06;14.70;99.90
7566;DHT22;3824;48.010;7.832;2022-09-29T13:20:49;14.80;99.90
7566;DHT22;3824;48.010;7.832;2022-09-29T13:23:34;14.90;99.90
7566;DHT22;3824;48.010;7.832;2022-09-29T13:26:21;14.90;99.90
7566;DHT22;3824;48.010;7.832;2022-09-29T13:28:53;15.00;99.90
7566;DHT22;3824;48.010;7.832;2022-09-29T13:31:26;15.00;99.90
7566;DHT22;3824;48.010;7.832;2022-09-29T13:33:55;14.90;99.90
7566;DHT22;3824;48.010;7.832;2022-09-29T13:36:24;15.00;99.90
7566;DHT22;3824;48.010;7.832;2022-09-29T13:38:57;15.00;99.90
7566;DHT22;3824;48.010;7.832;2022-09-29T13:41:35;15.00;99.90
7566;DHT22;3824;48.010;7.832;2022-09-29T13:44:22;15.00;99.90
7566;DHT22;3824;48.010;7.832;2022-09-29T13:46:52;15.00;99.90
7566;DHT22;3824;48.010;7.832;2022-09-29T13:49:24;15.00;99.90
7566;DHT22;3824;48.010;7.832;2022-09-29T13:51:53;15.10;99.90
7566;DHT22;3824;48.010;7.832;2022-09-29T13:54:29;15.10;99.90
7566;DHT22;3824;48.010;7.832;2022-09-29T13:57:17;15.20;99.90
7566;DHT22;3824;48.010;7.832;2022-09-29T13:59:59;15.20;99.90
7566;DHT22;3824;48.010;7.832;2022-09-29T14:02:33;15.20;99.90
7566;DHT22;3824;48.010;7.832;2022-09-29T14:05:01;15.20;99.90
7566;DHT22;3824;48.010;7.832;2022-09-29T14:07:40;15.20;99.90
7566;DHT22;3824;48.010;7.832;2022-09-29T14:10:20;15.20;99.90
7566;DHT22;3824;48.010;7.832;2022-09-29T14:12:54;15.20;99.90
7566;DHT22;3824;48.010;7.832;2022-09-29T14:15:23;15.20;99.90
7566;DHT22;3824;48.010;7.832;2022-09-29T14:17:55;15.20;99.90
7566;DHT22;3824;48.010;7.832;2022-09-29T14:20:26;15.20;99.90
7566;DHT22;3824;48.010;7.832;2022-09-29T14:23:00;15.20;99.90
7566;DHT22;3824;48.010;7.832;2022-09-29T14:28:41;15.20;99.90
7566;DHT22;3824;48.010;7.832;2022-09-29T14:31:20;15.40;99.90
7566;DHT22;3824;48.010;7.832;2022-09-29T14:33:51;15.30;99.90
7566;DHT22;3824;48.010;7.832;2022-09-29T14:36:21;15.30;99.90
7566;DHT22;3824;48.010;7.832;2022-09-29T14:38:50;15.40;99.90
7566;DHT22;3824;48.010;7.832;2022-09-29T14:41:24;15.40;99.90
7566;DHT22;3824;48.010;7.832;2022-09-29T14:43:54;15.40;99.90
7566;DHT22;3824;48.010;7.832;2022-09-29T14:46:53;15.40;99.90
7566;DHT22;3824;48.010;7.832;2022-09-29T14:53:03;15.50;99.90
7566;DHT22;3824;48.010;7.832;2022-09-29T14:55:41;15.60;99.90
7566;DHT22;3824;48.010;7.832;2022-09-29T14:58:36;15.60;99.90
7566;DHT22;3824;48.010;7.832;2022-09-29T15:01:09;15.60;99.90
7566;DHT22;3824;48.010;7.832;2022-09-29T15:03:44;15.60;99.90
7566;DHT22;3824;48.010;7.832;2022-09-29T15:06:14;15.50;99.90
7566;DHT22;3824;48.010;7.832;2022-09-29T15:08:44;15.40;99.90
7566;DHT22;3824;48.010;7.832;2022-09-29T15:11:33;15.10;99.90
7566;DHT22;3824;48.010;7.832;2022-09-29T15:14:16;15.20;99.90
7566;DHT22;3824;48.010;7.832;2022-09-29T15:16:52;15.20;99.90
7566;DHT22;3824;48.010;7.832;2022-09-29T15:19:30;15.10;99.90
7566;DHT22;3824;48.010;7.832;2022-09-29T15:22:12;14.90;99.90
7566;DHT22;3824;48.010;7.832;2022-09-29T15:24:59;14.80;99.90
7566;DHT22;3824;48.010;7.832;2022-09-29T15:27:28;14.70;99.90
7566;DHT22;3824;48.010;7.832;2022-09-29T15:29:58;14.60;99.90
7566;DHT22;3824;48.010;7.832;2022-09-29T15:32:27;14.50;99.90
7566;DHT22;3824;48.010;7.832;2022-09-29T15:35:01;14.40;99.90
7566;DHT22;3824;48.010;7.832;2022-09-29T15:37:55;14.40;99.90
7566;DHT22;3824;48.010;7.832;2022-09-29T15:40:24;14.30;99.90
7566;DHT22;3824;48.010;7.832;2022-09-29T15:42:52;14.20;99.90
7566;DHT22;3824;48.010;7.832;2022-09-29T15:45:22;14.20;99.90
7566;DHT22;3824;48.010;7.832;2022-09-29T15:47:59;14.10;99.90
7566;DHT22;3824;48.010;7.832;2022-09-29T15:50:27;14.00;99.90
7566;DHT22;3824;48.010;7.832;2022-09-29T15:52:59;14.00;99.90
7566;DHT22;3824;48.010;7.832;2022-09-29T15:55:28;13.90;99.90
7566;DHT22;3824;48.010;7.832;2022-09-29T15:57:56;13.80;99.90
7566;DHT22;3824;48.010;7.832;2022-09-29T16:00:44;13.80;99.90
7566;DHT22;3824;48.010;7.832;2022-09-29T16:03:14;13.70;99.90
7566;DHT22;3824;48.010;7.832;2022-09-29T16:06:00;13.70;99.90
7566;DHT22;3824;48.010;7.832;2022-09-29T16:08:30;13.60;99.90
7566;DHT22;3824;48.010;7.832;2022-09-29T16:11:01;13.60;99.90
7566;DHT22;3824;48.010;7.832;2022-09-29T16:13:31;13.50;99.90
7566;DHT22;3824;48.010;7.832;2022-09-29T16:16:00;13.50;99.90
7566;DHT22;3824;48.010;7.832;2022-09-29T16:18:30;13.50;99.90
7566;DHT22;3824;48.010;7.832;2022-09-29T16:20:58;13.40;99.90
7566;DHT22;3824;48.010;7.832;2022-09-29T16:23:35;13.30;99.90
7566;DHT22;3824;48.010;7.832;2022-09-29T16:26:17;13.30;99.90
7566;DHT22;3824;48.010;7.832;2022-09-29T16:31:47;13.20;99.90
7566;DHT22;3824;48.010;7.832;2022-09-29T16:34:23;13.20;99.90
7566;DHT22;3824;48.010;7.832;2022-09-29T16:36:51;13.10;99.90
7566;DHT22;3824;48.010;7.832;2022-09-29T16:39:21;13.00;99.90
7566;DHT22;3824;48.010;7.832;2022-09-29T16:41:50;12.90;99.90
7566;DHT22;3824;48.010;7.832;2022-09-29T16:44:24;12.80;99.90
7566;DHT22;3824;48.010;7.832;2022-09-29T16:46:54;12.80;99.90
7566;DHT22;3824;48.010;7.832;2022-09-29T16:49:24;12.70;99.90
7566;DHT22;3824;48.010;7.832;2022-09-29T16:51:53;12.80;99.90
7566;DHT22;3824;48.010;7.832;2022-09-29T16:54:25;12.80;99.90
7566;DHT22;3824;48.010;7.832;2022-09-29T16:57:16;12.80;99.90
7566;DHT22;3824;48.010;7.832;2022-09-29T16:59:43;12.90;99.90
7566;DHT22;3824;48.010;7.832;2022-09-29T17:02:11;12.90;99.90